Time;durP1;ratioP1;P1;durP2;ratioP2;P2;SDS_P1;SDS_P2;PMS_P1;PMS_P2;Temp;Humidity;BMP_temperature;BMP_pressure;BME280_temperature;BME280_humidity;BME280_pressure;Samples;Min_cycle;Max_cycle;Signal;HPM_P1;HPM_P2
2021/01/06 00:00:43;;;;;;;45.40;18.42;;;1.40;77.00;;;-0.68;78.93;95299.38;4967145;28;20050;-70
2021/01/06 00:03:17;;;;;;;47.08;18.35;;;1.60;76.90;;;-0.67;79.36;95295.84;4983742;28;20139;-70
2021/01/06 00:05:44;;;;;;;48.72;18.20;;;1.60;76.60;;;-0.68;78.91;95301.97;4985705;28;20541;-69
2021/01/06 00:08:10;;;;;;;48.65;19.05;;;1.60;76.40;;;-0.67;78.85;95307.94;4971495;28;20057;-70
2021/01/06 00:10:36;;;;;;;44.95;18.85;;;1.60;76.50;;;-0.68;78.86;95307.13;4955692;28;20161;-69
2021/01/06 00:13:02;;;;;;;48.90;19.08;;;1.40;76.60;;;-0.75;78.94;95300.88;4986585;28;20034;-69
2021/01/06 00:15:33;;;;;;;46.88;18.23;;;1.40;77.10;;;-0.69;79.27;95305.47;4952437;28;20139;-69
2021/01/06 00:17:59;;;;;;;40.88;17.83;;;1.50;77.00;;;-0.68;78.87;95307.13;4968056;28;20043;-69
2021/01/06 00:20:27;;;;;;;43.15;18.65;;;1.60;76.60;;;-0.68;78.87;95307.13;4969537;28;20030;-69
2021/01/06 00:22:52;;;;;;;49.53;20.02;;;1.50;76.70;;;-0.69;78.90;95309.81;4971188;28;20410;-69
2021/01/06 00:25:32;;;;;;;43.30;17.63;;;1.40;77.00;;;-0.70;79.34;95309.00;4987730;28;20117;-69
2021/01/06 00:27:59;;;;;;;48.13;18.33;;;1.40;77.10;;;-0.70;79.03;95306.41;4976385;28;20119;-69
2021/01/06 00:30:39;;;;;;;51.95;20.13;;;1.40;77.20;;;-0.71;79.76;95302.22;4973058;28;20058;-69
2021/01/06 00:33:09;;;;;;;51.77;20.13;;;1.40;77.50;;;-0.71;78.82;95302.22;4974173;28;20125;-69
2021/01/06 00:35:35;;;;;;;54.50;21.88;;;1.40;77.30;;;-0.69;79.20;95296.91;4972404;28;20026;-69
2021/01/06 00:38:01;;;;;;;57.28;21.52;;;1.50;77.30;;;-0.74;78.77;95288.78;4938532;28;20066;-70
2021/01/06 00:40:31;;;;;;;54.72;20.48;;;1.60;77.00;;;-0.68;79.16;95301.97;4971318;28;20043;-69
2021/01/06 00:42:58;;;;;;;56.40;20.52;;;1.60;77.00;;;-0.75;78.89;95285.38;4974439;28;20053;-66
2021/01/06 00:45:24;;;;;;;56.40;20.67;;;1.60;76.90;;;-0.69;79.23;95292.56;4955114;28;20034;-69
2021/01/06 00:47:50;;;;;;;59.40;22.38;;;1.60;77.20;;;-0.68;79.05;95291.63;4986516;28;20057;-68
2021/01/06 00:50:15;;;;;;;60.92;21.73;;;1.50;77.30;;;-0.70;79.25;95288.34;4971398;28;20498;-69
2021/01/06 00:52:41;;;;;;;59.03;21.02;;;1.40;77.40;;;-0.71;79.08;95289.31;4987368;28;20038;-69
2021/01/06 00:55:10;;;;;;;49.50;22.10;;;1.50;77.40;;;-0.73;79.27;95290.41;4970873;28;20052;-69
2021/01/06 00:57:35;;;;;;;66.97;22.23;;;1.40;77.90;;;-0.79;79.37;95276.28;4986375;28;20302;-69
2021/01/06 01:00:05;;;;;;;55.30;21.48;;;1.50;77.70;;;-0.74;79.28;95284.41;4954638;28;20470;-69
2021/01/06 01:02:30;;;;;;;54.95;20.88;;;1.40;77.70;;;-0.75;79.31;95295.69;4986243;28;20030;-69
2021/01/06 01:04:56;;;;;;;61.00;20.95;;;1.20;78.10;;;-0.77;79.30;95287.28;4969202;28;20045;-69
2021/01/06 01:07:22;;;;;;;58.42;21.63;;;1.30;78.10;;;-0.74;79.15;95286.19;4970496;28;20039;-69
2021/01/06 01:09:48;;;;;;;54.47;20.23;;;1.50;78.00;;;-0.74;79.42;95287.00;4987874;28;20125;-69
2021/01/06 01:12:13;;;;;;;56.67;21.30;;;1.40;77.90;;;-0.73;79.27;95291.22;4987206;28;20034;-70
2021/01/06 01:14:39;;;;;;;51.85;20.50;;;1.50;77.50;;;-0.76;79.39;95288.91;4954651;28;20335;-69
2021/01/06 01:17:07;;;;;;;57.65;20.30;;;1.40;78.00;;;-0.80;79.30;95285.00;4955037;28;20038;-69
2021/01/06 01:19:32;;;;;;;55.47;20.60;;;1.30;78.30;;;-0.78;79.47;95284.84;4973855;28;20049;-70
2021/01/06 01:21:58;;;;;;;87.40;33.55;;;1.40;78.30;;;-0.79;79.63;95284.03;4990252;28;20046;-69
2021/01/06 01:24:24;;;;;;;80.00;31.30;;;1.30;78.50;;;-0.85;79.66;95270.88;4990796;28;20101;-70
2021/01/06 01:26:51;;;;;;;56.28;22.02;;;1.30;78.40;;;-0.79;79.68;95280.63;4973948;28;20046;-69
2021/01/06 01:29:16;;;;;;;55.83;20.02;;;1.30;78.40;;;-0.84;79.39;95265.56;4990604;28;20494;-69
2021/01/06 01:31:45;;;;;;;57.00;21.50;;;1.40;78.40;;;-0.78;79.60;95279.69;5006171;28;20038;-69
2021/01/06 01:34:11;;;;;;;62.78;21.02;;;1.40;78.20;;;-0.83;79.74;95272.38;4990231;28;20034;-69
2021/01/06 01:36:37;;;;;;;56.20;21.08;;;1.30;78.50;;;-0.86;79.77;95264.91;4990196;28;20043;-69
2021/01/06 01:39:04;;;;;;;55.60;20.85;;;1.30;78.90;;;-0.78;79.74;95285.66;4958248;28;20113;-69
2021/01/06 01:41:31;;;;;;;64.88;21.65;;;1.40;78.80;;;-0.82;80.10;95271.41;4957891;28;20034;-69
2021/01/06 01:43:56;;;;;;;55.15;20.50;;;1.40;78.70;;;-0.77;80.12;95271.78;4973570;28;20038;-69
2021/01/06 01:46:45;;;;;;;58.35;21.05;;;1.40;78.80;;;-0.86;80.94;95264.09;5005929;28;20033;-69
2021/01/06 01:49:18;;;;;;;62.92;21.30;;;1.30;79.10;;;-0.81;80.61;95270.44;4976230;28;20038;-69
2021/01/06 01:52:04;;;;;;;65.65;22.27;;;1.40;79.20;;;-0.79;80.46;95268.53;4989236;28;20041;-69
2021/01/06 01:54:30;;;;;;;63.85;22.75;;;1.40;79.00;;;-0.80;80.07;95269.50;4963026;28;20144;-69
2021/01/06 01:57:10;;;;;;;63.40;22.73;;;1.30;79.70;;;-0.86;81.57;95262.31;4957232;28;20133;-69
2021/01/06 01:59:56;;;;;;;68.40;23.60;;;1.30;80.10;;;-0.88;81.73;95263.41;4954296;28;20569;-69
2021/01/06 02:02:40;;;;;;;80.47;22.92;;;1.20;80.50;;;-0.83;82.18;95261.22;4975236;28;20278;-69
2021/01/06 02:05:17;;;;;;;71.00;24.27;;;1.20;80.80;;;-0.91;81.39;95254.16;4990110;28;20097;-69
2021/01/06 02:07:56;;;;;;;67.68;23.40;;;1.20;80.90;;;-0.85;82.26;95261.38;4958385;28;20041;-69
2021/01/06 02:10:33;;;;;;;74.60;24.52;;;1.20;81.10;;;-0.87;82.30;95255.53;4991575;28;20073;-69
2021/01/06 02:13:11;;;;;;;72.10;23.38;;;1.20;81.50;;;-0.88;82.28;95253.91;4973636;28;20058;-69
2021/01/06 02:15:47;;;;;;;75.25;22.73;;;1.30;81.20;;;-0.88;82.31;95256.47;4958720;28;20046;-69
2021/01/06 02:18:13;;;;;;;81.90;25.50;;;1.30;81.40;;;-0.91;80.88;95241.25;4973352;28;20121;-69
2021/01/06 02:20:39;;;;;;;78.90;24.63;;;1.30;81.30;;;-0.94;81.25;95249.28;4973391;28;20541;-69
2021/01/06 02:23:05;;;;;;;82.95;25.38;;;1.30;81.50;;;-0.89;81.10;95247.13;4961546;28;20134;-69
2021/01/06 02:25:30;;;;;;;81.50;26.08;;;1.20;81.60;;;-0.90;81.45;95260.97;4972168;28;20126;-70
2021/01/06 02:27:57;;;;;;;85.78;27.05;;;1.20;82.10;;;-0.90;81.49;95253.22;4957517;28;20089;-69
2021/01/06 02:30:23;;;;;;;83.05;25.38;;;1.10;82.10;;;-0.98;81.51;95242.75;4953910;28;20528;-69
2021/01/06 02:32:49;;;;;;;90.35;26.90;;;1.20;82.10;;;-0.96;81.32;95241.69;4940039;28;20035;-69
2021/01/06 02:35:15;;;;;;;86.13;27.10;;;1.30;82.10;;;-0.88;81.69;95238.41;4954186;28;20443;-69
2021/01/06 02:37:41;;;;;;;90.35;26.38;;;1.20;81.90;;;-0.93;81.47;95245.75;4982087;28;20038;-69
2021/01/06 02:40:08;;;;;;;89.93;25.50;;;1.10;82.80;;;-0.95;81.74;95248.47;4968637;28;20046;-69
2021/01/06 02:42:33;;;;;;;84.78;25.60;;;1.10;82.80;;;-0.95;81.98;95248.47;4972830;28;20624;-69
2021/01/06 02:44:59;;;;;;;85.75;27.35;;;1.10;82.80;;;-0.95;81.51;95250.22;4973144;28;20126;-68
2021/01/06 02:47:25;;;;;;;87.10;26.75;;;1.10;82.70;;;-1.00;82.05;95234.34;4951641;28;20109;-71
2021/01/06 02:49:51;;;;;;;79.10;24.02;;;1.10;82.60;;;-0.99;81.83;95238.56;4967947;28;20057;-69
2021/01/06 02:52:20;;;;;;;82.00;25.77;;;1.20;82.30;;;-0.93;82.37;95250.91;4969932;28;20038;-69
2021/01/06 02:54:46;;;;;;;79.57;24.85;;;1.20;82.20;;;-0.93;81.95;95245.75;4957227;28;20510;-69
2021/01/06 02:57:12;;;;;;;84.40;25.85;;;1.30;82.20;;;-0.94;82.33;95244.94;4953251;28;20066;-69
2021/01/06 02:59:44;;;;;;;85.63;25.80;;;1.30;81.90;;;-0.95;83.19;95245.88;4963887;28;20034;-69
2021/01/06 03:02:17;;;;;;;84.78;24.58;;;1.20;82.30;;;-1.01;83.16;95232.72;4968860;28;20026;-69
2021/01/06 03:04:59;;;;;;;88.93;27.08;;;1.20;82.40;;;-0.99;83.83;95231.63;4953323;28;20034;-68
2021/01/06 03:07:25;;;;;;;84.18;26.33;;;1.00;83.00;;;-0.97;82.67;95228.91;4958825;28;20030;-69
2021/01/06 03:09:51;;;;;;;83.15;26.65;;;1.10;82.90;;;-0.97;82.20;95226.31;4953810;28;20039;-69
2021/01/06 03:12:30;;;;;;;77.95;24.65;;;1.20;82.50;;;-1.01;83.70;95222.41;4988222;28;20066;-69
2021/01/06 03:14:56;;;;;;;82.28;25.40;;;1.10;83.00;;;-0.98;82.44;95222.13;4969137;28;20037;-69
2021/01/06 03:17:22;;;;;;;78.43;24.77;;;1.10;82.80;;;-0.98;82.48;95224.69;4968659;28;20038;-69
2021/01/06 03:20:01;;;;;;;81.68;24.58;;;1.10;82.90;;;-0.98;83.61;95224.69;4955612;28;20062;-69
2021/01/06 03:22:27;;;;;;;84.72;26.20;;;1.10;82.80;;;-0.99;82.67;95225.66;4973853;28;20053;-69
2021/01/06 03:25:11;;;;;;;76.65;24.60;;;1.10;83.00;;;-1.01;84.16;95223.22;4988567;28;20066;-69
2021/01/06 03:27:38;;;;;;;89.00;24.80;;;1.10;82.90;;;-1.01;82.49;95222.41;4981283;28;20054;-69
2021/01/06 03:30:12;;;;;;;80.95;24.88;;;1.10;83.20;;;-1.01;83.70;95228.38;4955364;28;20042;-69
2021/01/06 03:32:49;;;;;;;74.80;23.60;;;1.10;83.00;;;-1.01;83.62;95223.22;4968603;28;20030;-69
2021/01/06 03:35:34;;;;;;;77.72;25.20;;;1.10;82.80;;;-0.98;84.11;95219.53;4970500;28;20046;-69
2021/01/06 03:38:40;;;;;;;88.60;24.83;;;1.10;82.80;;;-1.03;84.46;95214.00;4955653;28;20121;-69
2021/01/06 03:41:07;;;;;;;79.15;24.45;;;1.10;83.10;;;-0.97;82.57;95218.59;4970611;28;20042;-69
2021/01/06 03:43:40;;;;;;;77.50;23.90;;;1.10;82.80;;;-0.96;84.09;95220.22;4971239;28;20494;-69
2021/01/06 03:46:22;;;;;;;78.32;25.10;;;1.20;82.80;;;-0.94;84.02;95215.72;4970745;28;20046;-69
2021/01/06 03:49:08;;;;;;;;;;;1.30;82.50;;;-0.94;84.78;95213.13;4953783;28;20049;-68
2021/01/06 03:52:05;;;;;;;75.95;23.08;;;1.30;82.40;;;-0.92;84.03;95221.56;4971351;28;19921;-69
2021/01/06 03:54:57;;;;;;;75.60;24.48;;;1.30;82.30;;;-0.96;84.17;95210.69;4975076;28;20121;-69
2021/01/06 03:57:24;;;;;;;70.75;22.38;;;1.20;82.60;;;-0.96;82.62;95210.69;4987790;28;20030;-69
2021/01/06 03:59:50;;;;;;;74.68;24.45;;;1.20;82.50;;;-1.00;82.49;95198.22;4954688;28;20093;-69
2021/01/06 04:02:17;;;;;;;70.60;23.75;;;1.20;82.70;;;-0.95;82.88;95208.94;4952772;28;20034;-69
2021/01/06 04:04:50;;;;;;;68.60;23.30;;;1.20;82.40;;;-0.99;83.37;95202.44;4968417;28;20421;-69
2021/01/06 04:07:42;;;;;;;74.03;24.58;;;1.20;82.60;;;-0.96;83.99;95200.38;4945622;28;20489;-69
2021/01/06 04:10:18;;;;;;;77.38;24.73;;;1.20;82.40;;;-0.96;83.68;95202.97;4986665;28;20545;-69
2021/01/06 04:12:43;;;;;;;80.40;24.00;;;1.10;82.60;;;-0.97;82.63;95208.25;4985523;28;20039;-69
2021/01/06 04:15:11;;;;;;;75.57;23.50;;;1.10;82.80;;;-0.97;82.96;95205.69;4952705;28;20133;-69
2021/01/06 04:17:42;;;;;;;68.03;22.65;;;1.20;82.60;;;-0.97;83.60;95205.69;4958407;28;20118;-69
2021/01/06 04:20:15;;;;;;;68.00;23.23;;;1.20;82.60;;;-0.98;83.75;95198.91;4972002;28;20039;-69
2021/01/06 04:22:45;;;;;;;68.18;22.77;;;1.10;82.70;;;-0.98;83.20;95196.31;4988866;28;20027;-69
2021/01/06 04:25:20;;;;;;;76.53;25.20;;;1.20;82.70;;;-0.98;83.35;95191.16;4987756;28;20069;-69
2021/01/06 04:27:48;;;;;;;68.43;22.80;;;1.20;82.70;;;-0.97;83.03;95192.78;4969084;28;20231;-69
2021/01/06 04:30:25;;;;;;;66.93;22.27;;;1.20;82.70;;;-0.97;84.18;95198.75;4971569;28;20034;-69
2021/01/06 04:32:51;;;;;;;62.10;22.33;;;1.20;82.60;;;-1.00;82.89;95193.06;4987811;28;20580;-69
2021/01/06 04:35:17;;;;;;;71.35;22.70;;;1.20;82.50;;;-0.95;82.99;95198.59;4955580;28;20329;-70
2021/01/06 04:37:43;;;;;;;72.47;24.42;;;1.30;82.30;;;-0.97;83.20;95195.34;4988206;28;20057;-69
2021/01/06 04:40:10;;;;;;;71.57;22.77;;;1.20;82.40;;;-0.99;82.93;95197.25;4992713;28;20045;-69
2021/01/06 04:42:36;;;;;;;67.25;22.98;;;1.30;82.30;;;-0.96;82.79;95202.16;4990354;28;20072;-69
2021/01/06 04:45:35;;;;;;;71.00;24.15;;;1.30;82.10;;;-0.96;84.56;95194.41;4972860;28;20427;-69
2021/01/06 04:48:15;;;;;;;74.35;23.48;;;1.30;82.20;;;-0.94;84.18;95197.66;4998044;28;20026;-69
2021/01/06 04:51:15;;;;;;;70.22;23.85;;;1.30;82.10;;;-0.94;84.49;95200.22;5010241;28;20069;-69
2021/01/06 04:53:55;;;;;;;65.47;23.08;;;1.30;82.10;;;-0.94;84.04;95195.88;4989169;28;20130;-69
2021/01/06 04:56:31;;;;;;;77.05;24.75;;;1.30;82.00;;;-0.93;83.78;95188.94;4971625;28;20034;-69
2021/01/06 04:59:21;;;;;;;70.53;23.58;;;1.30;82.10;;;-0.94;84.10;95192.50;5010930;28;20088;-69
2021/01/06 05:02:05;;;;;;;73.28;23.83;;;1.20;82.20;;;-0.93;84.12;95189.78;5010137;28;20037;-69
2021/01/06 05:05:10;;;;;;;71.75;24.20;;;1.20;82.30;;;-0.95;84.42;95196.03;4993825;28;20121;-69
2021/01/06 05:08:05;;;;;;;73.32;25.27;;;1.10;82.60;;;-0.96;84.65;95195.22;5009828;28;20034;-69
2021/01/06 05:10:52;;;;;;;74.05;25.17;;;1.20;82.70;;;-0.95;84.07;95196.03;5009883;28;20038;-70
2021/01/06 05:13:29;;;;;;;76.35;26.05;;;1.20;82.50;;;-0.95;83.90;95185.69;4991089;28;20482;-69
2021/01/06 05:16:21;;;;;;;74.22;25.48;;;1.30;82.20;;;-1.00;84.15;95183.56;4978840;28;20034;-69
2021/01/06 05:18:47;;;;;;;80.40;26.92;;;1.30;82.00;;;-0.95;83.26;95196.03;5009978;28;20053;-69
2021/01/06 05:21:16;;;;;;;78.07;26.88;;;1.20;82.20;;;-0.95;83.53;95196.03;5009919;28;20038;-69
2021/01/06 05:23:41;;;;;;;77.45;26.83;;;1.30;82.30;;;-0.97;83.19;95188.44;4993875;28;20036;-69
2021/01/06 05:26:07;;;;;;;84.07;27.45;;;1.30;82.20;;;-1.02;83.13;95179.50;4993737;28;20030;-70
2021/01/06 05:28:33;;;;;;;80.53;27.90;;;1.10;82.20;;;-0.97;83.35;95187.63;4993019;28;20053;-69
2021/01/06 05:30:59;;;;;;;84.93;26.55;;;1.30;82.30;;;-0.96;83.09;95186.66;4977554;28;20062;-69
2021/01/06 05:33:52;;;;;;;80.85;28.48;;;1.30;82.20;;;-0.97;84.52;95192.78;4993608;28;20066;-69
2021/01/06 05:36:29;;;;;;;80.85;26.50;;;1.20;82.30;;;-0.96;83.97;95199.56;4986038;28;20079;-69
2021/01/06 05:38:55;;;;;;;77.80;26.83;;;1.30;82.10;;;-0.96;83.44;95202.97;4978131;28;20030;-69
2021/01/06 05:41:20;;;;;;;87.18;26.50;;;1.30;82.20;;;-1.03;83.30;95193.34;4993078;28;20581;-69
2021/01/06 05:43:50;;;;;;;81.82;28.48;;;1.20;82.20;;;-0.98;83.77;95197.13;4992812;28;20060;-69
2021/01/06 05:46:30;;;;;;;78.05;26.50;;;1.20;82.00;;;-0.98;84.15;95194.53;5011445;28;20363;-69
2021/01/06 05:49:00;;;;;;;81.43;27.35;;;1.20;82.00;;;-0.96;83.59;95204.72;4973956;28;20035;-69
2021/01/06 05:51:32;;;;;;;88.90;27.38;;;1.30;81.90;;;-0.98;83.74;95198.91;4975636;28;20034;-70
2021/01/06 05:54:14;;;;;;;83.40;27.27;;;1.30;81.90;;;-0.96;84.35;95199.56;4993104;28;20042;-69
2021/01/06 05:56:55;;;;;;;78.88;27.42;;;1.30;82.10;;;-0.96;83.92;95202.97;4994186;28;20551;-69
2021/01/06 05:59:48;;;;;;;79.82;28.35;;;1.20;81.70;;;-0.99;84.21;95200.66;5008742;28;20227;-69
2021/01/06 06:02:57;;;;;;;81.25;27.35;;;1.10;82.10;;;-0.99;84.57;95205.00;4997276;28;20066;-69
2021/01/06 06:05:36;;;;;;;80.20;27.27;;;1.10;82.30;;;-1.02;83.63;95205.28;5009559;28;20034;-69
2021/01/06 06:08:47;;;;;;;85.65;28.77;;;1.10;82.50;;;-1.07;84.54;95199.75;5008186;28;20058;-69
2021/01/06 06:11:19;;;;;;;78.10;25.98;;;1.00;82.70;;;-1.09;84.08;95204.22;4993621;28;20105;-69
2021/01/06 06:14:33;;;;;;;78.63;27.48;;;1.00;82.90;;;-1.11;84.51;95190.66;4999589;28;20160;-69
2021/01/06 06:17:06;;;;;;;83.72;27.02;;;1.00;82.70;;;-1.12;83.34;95194.19;4996691;28;20040;-69
2021/01/06 06:20:16;;;;;;;81.18;27.35;;;1.10;82.80;;;-1.11;84.88;95200.97;4976576;28;20026;-69
2021/01/06 06:23:34;;;;;;;68.82;25.02;;;1.10;82.70;;;-1.11;84.91;95200.97;5008855;28;20030;-69
2021/01/06 06:26:15;;;;;;;70.95;27.55;;;1.10;82.60;;;-1.12;84.14;95204.53;5009416;28;20030;-69
2021/01/06 06:29:02;;;;;;;73.95;27.40;;;1.00;82.70;;;-1.10;84.69;95210.34;5008930;28;20048;-71
2021/01/06 06:31:30;;;;;;;79.30;26.85;;;1.10;82.70;;;-1.10;83.23;95207.78;5009302;28;20029;-69
2021/01/06 06:34:07;;;;;;;69.57;25.20;;;1.00;82.40;;;-1.17;84.38;95199.75;4991555;28;20035;-69
2021/01/06 06:36:36;;;;;;;72.13;25.10;;;0.80;83.20;;;-1.17;84.11;95204.91;4992815;28;20034;-69
2021/01/06 06:39:32;;;;;;;72.35;25.58;;;0.90;83.10;;;-1.18;84.77;95212.78;4991934;28;20125;-69
2021/01/06 06:42:26;;;;;;;71.03;25.40;;;1.00;83.00;;;-1.18;84.67;95212.78;5002795;28;20061;-69
2021/01/06 06:44:54;;;;;;;72.10;25.38;;;1.00;82.90;;;-1.26;83.37;95208.34;4986843;28;20049;-69
2021/01/06 06:47:23;;;;;;;74.10;25.27;;;0.90;82.80;;;-1.17;83.87;95217.00;4987925;28;20126;-69
2021/01/06 06:50:15;;;;;;;66.55;23.70;;;1.00;82.80;;;-1.16;84.52;95223.78;4988866;28;20038;-69
2021/01/06 06:52:49;;;;;;;;;;;1.10;82.50;;;-1.15;85.07;95217.66;4977322;28;20114;-69
2021/01/06 06:55:36;;;;;;;66.32;23.63;;;1.10;82.30;;;-1.16;84.18;95218.63;4988377;28;19914;-69
2021/01/06 06:58:29;;;;;;;64.40;23.92;;;1.00;82.20;;;-1.20;84.51;95212.94;4988242;28;20038;-69
2021/01/06 07:00:55;;;;;;;64.95;24.00;;;0.90;82.70;;;-1.23;83.35;95224.34;5022309;28;20060;-69
2021/01/06 07:03:26;;;;;;;64.93;24.58;;;0.90;82.80;;;-1.26;83.86;95222.06;4991401;28;20222;-69
2021/01/06 07:06:00;;;;;;;62.08;23.90;;;0.90;82.80;;;-1.22;84.24;95230.31;4991047;28;20128;-69
2021/01/06 07:08:43;;;;;;;66.05;25.75;;;1.00;82.70;;;-1.20;84.35;95227.59;4992029;28;20042;-69
2021/01/06 07:11:39;;;;;;;68.28;24.50;;;1.00;82.60;;;-1.23;84.75;95229.50;5007520;28;20048;-69
2021/01/06 07:14:18;;;;;;;66.38;24.75;;;0.90;82.80;;;-1.28;83.64;95221.38;5006612;28;20087;-69
2021/01/06 07:16:52;;;;;;;71.13;25.83;;;0.80;83.10;;;-1.23;84.30;95246.75;4984882;28;20068;-68
2021/01/06 07:19:29;;;;;;;67.97;25.02;;;0.90;82.90;;;-1.24;84.60;95238.19;5008799;28;20044;-71
2021/01/06 07:22:40;;;;;;;65.57;24.95;;;0.90;82.70;;;-1.24;84.59;95238.19;5007035;28;20038;-67
2021/01/06 07:25:18;;;;;;;;;;;0.90;82.60;;;-1.27;84.83;95248.78;5002438;28;20377;-66
2021/01/06 07:27:45;;;;;;;64.60;24.63;;;0.80;82.70;;;-1.32;83.37;95242.44;5012500;28;19957;-66
2021/01/06 07:30:33;;;;;;;73.72;25.42;;;0.80;83.10;;;-1.29;83.80;95242.97;4984983;28;20033;-67
2021/01/06 07:33:00;;;;;;;64.60;24.88;;;0.80;82.90;;;-1.26;83.44;95250.41;4992888;28;20141;-69
2021/01/06 07:35:27;;;;;;;67.97;25.52;;;0.80;82.80;;;-1.37;83.68;95242.81;4993023;28;20405;-68
2021/01/06 07:37:59;;;;;;;63.40;24.17;;;0.70;83.30;;;-1.32;84.20;95248.41;4975597;28;20230;-69
2021/01/06 07:40:29;;;;;;;66.20;23.95;;;0.80;83.20;;;-1.33;84.00;95251.13;4991496;28;20035;-69
2021/01/06 07:43:07;;;;;;;67.57;25.60;;;0.70;83.10;;;-1.32;84.60;95256.13;5015858;28;20367;-69
2021/01/06 07:45:59;;;;;;;64.80;24.85;;;0.80;83.00;;;-1.33;84.19;95257.09;4999060;28;20026;-70
2021/01/06 07:48:43;;;;;;;58.72;22.90;;;0.70;82.60;;;-1.36;84.31;95259.94;4991950;28;20486;-70
2021/01/06 07:51:30;;;;;;;61.38;23.00;;;0.60;83.00;;;-1.40;83.58;95263.72;5011805;28;20102;-69
2021/01/06 07:54:11;;;;;;;61.95;22.45;;;0.60;83.60;;;-1.44;84.49;95262.38;5008172;28;20068;-69
2021/01/06 07:57:08;;;;;;;62.65;23.75;;;0.60;83.30;;;-1.43;84.82;95265.78;4988112;28;20038;-69
2021/01/06 07:59:54;;;;;;;57.78;23.58;;;0.60;83.30;;;-1.43;84.66;95269.16;4989100;28;20599;-70
2021/01/06 08:02:36;;;;;;;57.08;22.52;;;0.60;83.10;;;-1.44;84.46;95270.13;5004183;28;20536;-69
2021/01/06 08:05:20;;;;;;;63.45;22.65;;;0.50;83.00;;;-1.47;84.16;95274.72;4991347;28;20429;-69
2021/01/06 08:07:46;;;;;;;60.28;23.98;;;0.50;83.10;;;-1.49;83.69;95272.28;4987427;28;20505;-70
2021/01/06 08:10:30;;;;;;;63.70;21.55;;;0.50;83.60;;;-1.49;84.32;95280.03;4971210;28;20026;-69
2021/01/06 08:13:29;;;;;;;59.38;22.83;;;0.50;83.40;;;-1.53;84.64;95276.09;4973965;28;20048;-71
2021/01/06 08:16:06;;;;;;;58.72;22.80;;;0.50;83.10;;;-1.47;84.87;95282.47;4989164;28;20117;-70
2021/01/06 08:19:15;;;;;;;58.00;23.27;;;0.60;83.10;;;-1.45;84.78;95281.38;5007163;28;20374;-69
2021/01/06 08:22:08;;;;;;;62.38;22.95;;;0.60;82.80;;;-1.44;84.10;95284.78;4990848;28;20109;-69
2021/01/06 08:24:44;;;;;;;59.40;22.77;;;0.70;82.80;;;-1.44;83.90;95283.00;5006687;28;20034;-70
2021/01/06 08:27:16;;;;;;;60.38;22.95;;;0.60;82.80;;;-1.49;84.17;95279.22;5006112;28;20042;-70
2021/01/06 08:29:42;;;;;;;56.22;22.15;;;0.60;82.70;;;-1.42;83.43;95286.25;4989215;28;20544;-69
2021/01/06 08:32:13;;;;;;;62.55;24.25;;;0.70;82.50;;;-1.40;83.81;95289.53;5005941;28;20029;-71
2021/01/06 08:34:40;;;;;;;58.22;23.23;;;0.70;82.40;;;-1.44;83.47;95283.00;5007223;28;20038;-70
2021/01/06 08:37:12;;;;;;;62.08;23.40;;;0.80;82.30;;;-1.35;83.81;95287.38;4974026;28;20033;-69
2021/01/06 08:39:53;;;;;;;59.47;22.17;;;0.80;82.20;;;-1.34;84.46;95291.56;5005261;28;20080;-69
2021/01/06 08:42:46;;;;;;;71.93;29.92;;;0.80;82.40;;;-1.33;84.34;95290.63;5007114;28;20041;-70
2021/01/06 08:45:31;;;;;;;76.15;30.27;;;0.70;82.10;;;-1.32;84.15;95294.84;4998290;28;20067;-70
2021/01/06 08:48:24;;;;;;;61.58;24.02;;;0.80;82.10;;;-1.32;83.67;95287.09;4971363;28;20035;-70
2021/01/06 08:50:50;;;;;;;61.75;23.05;;;0.80;82.30;;;-1.33;83.12;95292.41;4982146;28;20523;-69
2021/01/06 08:53:16;;;;;;;78.45;28.52;;;0.60;82.00;;;-1.36;83.60;95284.91;4970302;28;20073;-69
2021/01/06 08:56:03;;;;;;;65.80;24.67;;;0.80;82.10;;;-1.32;83.72;95287.09;4998264;28;20026;-70
2021/01/06 08:58:45;;;;;;;68.75;25.40;;;0.80;81.90;;;-1.34;83.99;95289.00;4992681;28;20040;-70
2021/01/06 09:01:49;;;;;;;62.00;23.73;;;0.90;82.10;;;-1.30;84.53;95290.34;4982993;28;20144;-67
2021/01/06 09:04:22;;;;;;;69.15;24.75;;;0.80;81.90;;;-1.30;83.64;95292.94;5005560;28;20029;-68
2021/01/06 09:07:40;;;;;;;66.88;25.27;;;0.70;82.00;;;-1.29;83.87;95302.28;4973766;28;20464;-67
2021/01/06 09:10:27;;;;;;;67.78;25.10;;;0.70;82.10;;;-1.25;83.82;95305.41;4962961;28;20026;-70
2021/01/06 09:13:11;;;;;;;65.07;24.70;;;0.90;81.90;;;-1.28;83.80;95303.94;4976293;28;20922;-70
2021/01/06 09:15:51;;;;;;;67.78;27.45;;;0.90;81.90;;;-1.19;84.32;95306.63;4974342;28;20052;-67
2021/01/06 09:18:40;;;;;;;78.07;29.60;;;0.90;82.40;;;-1.12;84.56;95302.56;4970846;28;20088;-68
2021/01/06 09:21:21;;;;;;;57.60;23.27;;;1.10;82.50;;;-1.10;83.95;95316.16;5003816;28;20462;-69
2021/01/06 09:23:52;;;;;;;62.25;23.48;;;1.00;81.40;;;-1.05;83.32;95311.38;4984264;28;20136;-70
2021/01/06 09:26:21;;;;;;;83.18;30.65;;;1.10;81.30;;;-1.02;83.40;95318.84;4993683;28;20429;-70
2021/01/06 09:29:06;;;;;;;59.38;24.23;;;1.10;81.40;;;-1.01;83.96;95323.06;5006825;28;20457;-70
2021/01/06 09:31:38;;;;;;;62.17;23.30;;;1.10;80.80;;;-0.99;83.21;95318.56;4983224;28;20501;-69
2021/01/06 09:34:04;;;;;;;61.65;22.75;;;1.10;81.20;;;-0.95;82.95;95319.91;4985339;28;20045;-68
2021/01/06 09:36:29;;;;;;;63.65;24.23;;;1.20;80.90;;;-0.98;83.15;95317.63;4974979;28;20030;-69
2021/01/06 09:38:55;;;;;;;63.13;23.67;;;1.20;80.90;;;-0.93;82.87;95323.19;4975494;28;20188;-70
2021/01/06 09:41:27;;;;;;;70.38;27.40;;;1.20;80.60;;;-0.92;83.07;95329.97;4974404;28;20131;-69
2021/01/06 09:44:08;;;;;;;64.65;24.88;;;1.10;81.00;;;-0.95;82.98;95325.91;4991319;28;20132;-67
2021/01/06 09:46:50;;;;;;;57.55;21.88;;;1.20;80.70;;;-0.91;83.30;95331.59;4974304;28;20030;-69
2021/01/06 09:49:23;;;;;;;64.30;24.23;;;1.10;81.10;;;-0.88;83.04;95335.69;5008661;28;20034;-70
2021/01/06 09:51:51;;;;;;;58.63;23.15;;;1.20;81.00;;;-0.86;83.15;95334.59;5007480;28;20044;-69
2021/01/06 09:54:17;;;;;;;63.00;22.40;;;1.20;80.50;;;-0.83;82.89;95338.66;4988919;28;20041;-67
2021/01/06 09:56:44;;;;;;;61.33;23.10;;;1.30;80.50;;;-0.78;82.97;95337.28;5008301;28;20038;-67
2021/01/06 09:59:26;;;;;;;60.30;23.73;;;1.50;80.50;;;-0.73;83.48;95342.84;4992242;28;20041;-67
2021/01/06 10:02:00;;;;;;;51.60;21.80;;;1.60;80.20;;;-0.71;83.27;95338.38;5005276;28;20042;-67
2021/01/06 10:04:31;;;;;;;64.15;24.35;;;1.50;80.30;;;-0.67;83.13;95336.34;4988789;28;20462;-70
2021/01/06 10:07:37;;;;;;;61.28;23.73;;;1.60;80.80;;;-0.65;82.96;95335.25;4973145;28;20504;-73
2021/01/06 10:10:31;;;;;;;60.42;23.25;;;1.50;79.80;;;-0.65;82.71;95321.53;4972647;28;20549;-67
2021/01/06 10:13:10;;;;;;;60.63;22.73;;;1.40;80.00;;;-0.63;82.47;95327.34;4994340;28;20030;-65
2021/01/06 10:15:54;;;;;;;55.15;21.60;;;1.50;80.10;;;-0.58;82.84;95321.78;5007197;28;20033;-67
2021/01/06 10:18:50;;;;;;;58.45;22.60;;;1.60;79.90;;;-0.53;82.89;95324.75;5009473;28;20034;-61
2021/01/06 10:21:34;;;;;;;70.38;24.42;;;1.70;79.70;;;-0.51;83.08;95315.91;5009091;28;20104;-62
2021/01/06 10:24:40;;;;;;;64.38;24.30;;;1.60;80.00;;;-0.45;83.29;95322.28;5004776;28;20028;-65
2021/01/06 10:27:40;;;;;;;63.55;26.13;;;1.80;80.20;;;-0.43;82.76;95317.78;4993130;28;20172;-67
2021/01/06 10:30:13;;;;;;;60.88;25.08;;;1.70;80.20;;;-0.45;82.63;95301.63;5002823;28;20131;-65
2021/01/06 10:32:46;;;;;;;58.22;23.58;;;1.80;79.90;;;-0.35;82.95;95317.91;4987142;28;20548;-65
2021/01/06 10:35:42;;;;;;;58.00;22.38;;;2.00;79.80;;;-0.27;83.31;95312.81;4987918;28;20046;-64
2021/01/06 10:38:43;;;;;;;60.28;25.38;;;2.00;79.70;;;-0.24;82.66;95315.13;5008189;28;20048;-64
2021/01/06 10:41:33;;;;;;;52.28;22.13;;;2.10;79.30;;;-0.24;83.09;95309.94;5006030;28;20072;-64
2021/01/06 10:44:29;;;;;;;54.60;22.48;;;1.90;79.50;;;-0.19;83.08;95305.19;4996866;28;20038;-63
2021/01/06 10:46:55;;;;;;;69.47;27.70;;;2.10;80.00;;;-0.10;82.64;95309.50;5006296;28;20406;-67
2021/01/06 10:49:21;;;;;;;61.90;24.38;;;2.30;80.40;;;-0.02;82.68;95308.78;4993459;28;20045;-64
2021/01/06 10:52:02;;;;;;;59.42;24.75;;;2.30;78.40;;;0.04;83.22;95297.06;5008320;28;20045;-67